Fairdale, Texas
Current Conditions -  °F | °C
As of 8:35 PM on Thursday 20 Nov 2014 (Local Time) from KJAS Reporting Station
Overcast Overcast  
Wind Chill: 61°   Ceiling: 7500
Heat Index: 61°   Visibility: 10mi
Dew Point: 53°   Wind: 8mph
Humidity: 76%   Direction: 140°SE
Pressure: 30.16"   Gusts: NA
Location:  31.2799°N, 93.803°W
Report Text: KJAS 210235Z AUTO 14007KT 10SM OVC075 16/12 A3016 RMK AO2 T01600117
Loading
Personal Weather Stations






























Interactive Weather Map New forecast layout! Learn more

10-Day Weather Forecast

Advertisements
Track Severe Weather on mobile